Latest Coastal Weather Observations for Broome

IDW60701

Issued at 11:05 am WST Thursday 27 November 2014 (issued every 10 minutes, with the page automatically refreshed every 10 minutes)

About coastal observations | Map of coastal stations | Coastal observations for WA | Marine services | Other Formats
Station Details ID: 003003 Name: BROOME AIRPORT Lat: -17.95 Lon: 122.24 Height: 7.42 m
Data from the previous 72 hours. | See also: Recent months at Broome
Date/Time
WST
Temp

°C
Wind Pressure Rain
since 9am
mm
Weather Cloud Vis
km
Sea
Height
m
Swell
Dir
 
Speed
knots
Gust
knots
hPa Trend Height
m
Period
s
Dir
27/11:00am 34.6 W 9 14 1008.7 - 0.0 - Mostly clear 10 - - - -
27/10:30am 33.6 W 8 12 1009.1 - 0.0 - Mostly clear 10 - - - -
27/10:00am 32.9 W 8 11 1009.3 - 0.0 - Mostly clear 10 - - - -
27/09:30am 32.8 W 9 12 1009.0 - 0.0 - Mostly clear 10 - - - -
27/09:00am 33.4 W 7 10 1009.1 F 0.0 Haze Mostly clear 25 - - - -
27/08:30am 32.6 WNW 7 10 1009.2 - 0.0 - Mostly clear 10 - - - -
27/08:00am 32.2 W 6 8 1009.0 - 0.0 - - 10 - - - -
27/07:30am 32.1 W 6 8 1008.8 - 0.0 - Mostly clear 10 - - - -
27/07:00am 31.3 W 6 9 1008.8 - 0.0 - - 10 - - - -
27/06:30am 30.8 NW 5 7 1008.5 - 0.0 - - 10 - - - -
27/06:00am 29.6 NNW 3 5 1008.4 F 0.0 Haze Clear 25 - - - -
27/05:30am 28.1 N 4 5 1008.3 - 0.0 - Mostly clear 10 - - - -
27/05:00am 27.6 NNE 5 6 1008.2 - 0.0 - - 10 - - - -
27/04:30am 28.6 CALM 0 0 1007.7 - 0.0 - - 10 - - - -
27/04:00am 29.5 WSW 4 5 1007.5 - 0.0 - - 10 - - - -
27/03:30am 29.7 WSW 6 7 1007.3 - 0.0 - - 10 - - - -
27/03:00am 29.8 WSW 5 7 1007.2 - 0.0 - Mostly clear 10 - - - -
27/02:30am 29.9 SW 7 9 1007.0 - 0.0 - Partly cloudy 10 - - - -
27/02:00am 30.0 WSW 5 7 1006.9 - 0.0 - Partly cloudy 10 - - - -
27/01:30am 30.1 W 6 9 1006.6 - 0.0 - - 10 - - - -
27/01:00am 30.1 W 7 10 1006.4 - 0.0 - Partly cloudy 10 - - - -
27/12:30am 30.1 W 7 10 1006.5 - 0.0 - Partly cloudy 10 - - - -
27/12:00am 30.1 WNW 6 10 1006.5 - 0.0 - Mostly clear 10 - - - -
 
Date/Time
WST
Temp

°C
Wind Pressure Rain
since 9am
mm
Weather Cloud Vis
km
Sea
Height
m
Swell
Dir
 
Speed
knots
Gust
knots
hPa Trend Height
m
Period
s
Dir
26/11:30pm 30.2 WNW 7 10 1006.7 - 0.0 - - 10 - - - -
26/11:00pm 30.5 WNW 8 11 1007.0 - 0.0 - - 10 - - - -
26/10:30pm 30.6 NW 8 13 1007.3 - 0.0 - - 10 - - - -
26/10:00pm 30.7 NW 9 15 1007.3 - 0.0 - - 10 - - - -
26/09:30pm 31.0 NW 9 14 1007.4 - 0.0 - - 10 - - - -
26/09:00pm 31.2 NNW 9 13 1007.3 - 0.0 - - 10 - - - -
26/08:30pm 30.7 NNW 7 9 1007.0 - 0.0 - Partly cloudy 10 - - - -
26/08:00pm 30.8 NW 8 11 1006.4 - 0.0 - - 10 - - - -
26/07:30pm 31.2 NW 8 11 1005.8 - 0.0 - - 10 - - - -
26/07:00pm 31.7 NNW 9 12 1005.2 - 0.0 - - 10 - - - -
26/06:30pm 32.2 WSW 5 8 1004.4 - 0.0 - - 10 - - - -
26/06:00pm 32.9 WSW 9 11 1003.5 - 0.0 - - 10 - - - -
26/05:30pm 34.5 WSW 11 14 1003.0 - 0.0 - - 10 - - - -
26/05:22pm 34.7 SW 11 15 1002.8 - 0.0 - - 10 - - - -
26/05:00pm 39.8 S 6 8 1002.6 - 0.0 - - 10 - - - -
26/04:30pm 40.1 SSE 7 10 1002.5 - 0.0 - - 10 - - - -
26/04:00pm 40.1 S 7 10 1002.6 - 0.0 - - 10 - - - -
26/03:30pm 40.3 SSE 7 11 1003.0 - 0.0 - - 10 - - - -
26/03:00pm 40.1 SSE 7 10 1003.1 - 0.0 - - 10 - - - -
26/02:30pm 40.0 SSE 8 12 1003.7 - 0.0 - - 10 - - - -
26/02:00pm 39.6 SE 9 13 1004.0 - 0.0 - - 10 - - - -
26/01:30pm 39.5 SE 11 15 1004.3 - 0.0 - - 10 - - - -
26/01:00pm 38.0 ESE 11 14 1004.8 - 0.0 - - 10 - - - -
26/12:30pm 38.0 ESE 11 15 1005.4 - 0.0 - - 10 - - - -
26/12:00pm 37.7 ESE 11 15 1005.9 F 0.0 Haze Mostly clear 30 - - - -
26/11:30am 36.7 ESE 13 17 1006.6 - 0.0 - - 10 - - - -
26/11:00am 36.3 ESE 13 19 1007.3 - 0.0 - - 10 - - - -
26/10:30am 35.4 ESE 16 21 1008.0 - 0.0 - - 10 - - - -
26/10:00am 34.8 ESE 16 23 1008.6 - 0.0 - - 10 - - - -
26/09:30am 34.2 SE 16 24 1009.1 - 0.0 - - 10 - - - -
26/09:00am 32.8 ESE 17 24 1009.3 F 0.2 Haze Mostly clear 20 - - - -
26/08:30am 30.6 ESE 16 23 1009.7 - 0.2 - Partly cloudy 10 - - - -
26/08:00am 30.0 ESE 13 19 1009.7 - 0.2 - Partly cloudy 10 - - - -
26/07:30am 29.2 ESE 11 18 1009.5 - 0.2 - Partly cloudy 10 - - - -
26/07:00am 29.4 SE 14 19 1009.4 - 0.2 - Partly cloudy 10 - - - -
26/06:30am 28.8 S 12 18 1009.4 - 0.2 - - 10 - - - -
26/06:00am 28.9 S 11 17 1009.2 R 0.2 Haze Mostly cloudy 12 - - - -
26/05:30am 28.9 S 11 15 1008.6 - 0.2 - Partly cloudy 8 - - - -
26/05:00am 29.1 SSE 9 15 1008.0 - 0.2 - - 10 - - - -
26/04:30am 29.2 SSE 9 13 1007.3 - 0.2 - Partly cloudy 10 - - - -
26/04:00am 29.3 SSE 9 13 1007.3 - 0.2 - Partly cloudy 9 - - - -
26/03:35am 29.5 SE 10 15 1007.5 - 0.2 - - 7 - - - -
26/03:30am 29.5 SE 9 13 1007.3 - 0.2 - - 7 - - - -
26/03:00am 29.0 ESE 6 8 1006.9 - 0.2 - Mostly clear 4 - - - -
26/02:54am 29.2 SE 6 8 1006.9 - 0.2 - Partly cloudy 4 - - - -
26/02:30am 29.4 ESE 7 9 1007.3 - 0.2 - Partly cloudy 3 - - - -
26/02:00am 29.4 SE 8 11 1007.4 - 0.2 - Cloudy 2 - - - -
26/01:30am 29.8 SE 8 11 1007.3 - 0.2 - Cloudy 2 - - - -
26/01:03am 30.1 SE 9 13 1007.5 - 0.2 - Partly cloudy 3 - - - -
26/01:00am 30.2 SE 9 13 1007.6 - 0.2 - Partly cloudy 4 - - - -
26/12:52am 30.2 SE 9 14 1007.7 - 0.2 - Partly cloudy 6 - - - -
26/12:30am 30.4 S 9 13 1007.7 - 0.2 - - 10 - - - -
26/12:00am 30.2 SSW 9 13 1007.8 - 0.2 - Partly cloudy 10 - - - -
 
Date/Time
WST
Temp

°C
Wind Pressure Rain
since 9am
mm
Weather Cloud Vis
km
Sea
Height
m
Swell
Dir
 
Speed
knots
Gust
knots
hPa Trend Height
m
Period
s
Dir
25/11:30pm 30.4 S 10 16 1008.4 - 0.2 - Partly cloudy 10 - - - -
25/11:00pm 30.2 SSW 8 11 1008.4 - 0.2 - - 10 - - - -
25/10:30pm 30.2 WSW 7 10 1007.8 - 0.2 - - 10 - - - -
25/10:00pm 30.0 W 7 12 1007.5 - 0.2 - - 10 - - - -
25/09:30pm 30.2 W 9 13 1007.1 - 0.2 - - 10 - - - -
25/09:00pm 30.0 W 8 12 1006.6 F 0.2 Fine Mostly clear 30 - - - -
25/08:30pm 30.1 WNW 8 11 1006.5 - 0.2 - - 10 - - - -
25/08:00pm 30.3 NW 7 11 1006.2 - 0.2 - - 10 - - - -
25/07:30pm 30.4 WNW 7 11 1006.3 - 0.2 - - 10 - - - -
25/07:00pm 30.6 WNW 8 11 1005.8 - 0.2 - - 10 - - - -
25/06:30pm 30.8 WNW 8 11 1005.6 - 0.2 - - 10 - - - -
25/06:00pm 31.3 WNW 8 11 1005.2 F 0.2 Fine Mostly clear 30 - - - -
25/05:30pm 32.2 WNW 8 11 1005.1 - 0.2 - - 10 - - - -
25/05:00pm 32.4 WNW 11 15 1004.8 - 0.2 - - 10 - - - -
25/04:30pm 33.3 WNW 11 16 1004.7 - 0.2 - - 10 - - - -
25/04:00pm 33.3 W 12 16 1004.7 - 0.2 - - 10 - - - -
25/03:30pm 34.0 W 11 15 1005.1 - 0.2 - - 10 - - - -
25/03:00pm 34.4 WNW 10 14 1005.5 S 0.2 Fine Mostly cloudy 30 - - - -
25/02:30pm 35.2 W 10 14 1005.9 - 0.2 - - 10 - - - -
25/02:00pm 35.1 W 9 11 1006.3 - 0.2 - - 10 - - - -
25/01:30pm 35.5 W 9 12 1006.5 - 0.0 - Mostly clear 10 - - - -
25/01:00pm 32.5 WNW 7 11 1007.0 - 0.0 - Mostly clear 10 - - - -
25/12:30pm 33.1 NW 7 10 1007.1 - 0.0 - Mostly clear 10 - - - -
25/12:00pm 33.1 SW 7 10 1007.4 F 0.0 Recent precip. Mostly cloudy 25 - - - -
25/11:30am 29.9 NW 9 14 1008.1 - 0.0 Rain Mostly clear 10 - - - -
25/11:00am 30.8 ENE 6 7 1008.8 - 0.0 Rain Mostly clear 10 - - - -
25/10:30am 32.8 SE 6 8 1009.2 - 0.0 - Mostly clear 10 - - - -
25/10:00am 32.9 ESE 6 8 1009.5 - 0.0 Rain Mostly clear 10 - - - -
25/09:30am 32.0 SE 5 8 1009.7 - 0.0 - Mostly clear 10 - - - -
25/09:00am 31.2 ESE 5 7 1009.8 R 0.0 Haze Mostly cloudy 25 - - - -
25/08:30am 30.6 ESE 6 8 1010.0 - 0.0 - Mostly clear 10 - - - -
25/08:00am 30.1 SSE 6 8 1010.1 - 0.0 - Mostly clear 10 - - - -
25/07:30am 30.1 S 7 10 1010.1 - 0.0 - Mostly clear 10 - - - -
25/07:00am 29.7 S 7 11 1009.6 - 0.0 - Mostly clear 10 - - - -
25/06:30am 30.7 SSW 8 13 1009.4 - 0.0 - - 10 - - - -
25/06:00am 30.2 SSW 5 9 1008.7 R 0.0 Haze Mostly cloudy 25 - - - -
25/05:30am 29.8 SW 5 7 1008.2 - 0.0 - - 10 - - - -
25/05:00am 29.7 SW 7 10 1007.8 - 0.0 - - 10 - - - -
25/04:30am 29.7 WSW 6 8 1007.7 - 0.0 - - 10 - - - -
25/04:00am 29.8 WSW 7 10 1007.5 - 0.0 - - 10 - - - -
25/03:30am 29.8 SW 9 12 1007.1 - 0.0 - - 10 - - - -
25/03:00am 29.6 W 7 11 1006.8 - 0.0 - - 10 - - - -
25/02:30am 29.6 WSW 7 10 1006.7 - 0.0 - - 10 - - - -
25/02:00am 29.6 W 7 10 1006.7 - 0.0 - - 10 - - - -
25/01:30am 29.6 WSW 7 9 1006.8 - 0.0 - - 10 - - - -
25/01:00am 29.7 W 7 10 1007.2 - 0.0 - - 10 - - - -
25/12:30am 29.4 W 7 10 1007.5 - 0.0 - - 10 - - - -
25/12:00am 29.4 WNW 7 9 1007.5 - 0.0 - - 10 - - - -
 
Date/Time
WST
Temp

°C
Wind Pressure Rain
since 9am
mm
Weather Cloud Vis
km
Sea
Height
m
Swell
Dir
 
Speed
knots
Gust
knots
hPa Trend Height
m
Period
s
Dir
24/11:30pm 29.5 WNW 7 11 1007.9 - 0.0 - - 10 - - - -
24/11:00pm 29.5 WNW 9 13 1008.3 - 0.0 - - 10 - - - -
24/10:30pm 29.4 WNW 9 14 1008.5 - 0.0 - - 10 - - - -
24/10:00pm 29.5 W 9 14 1008.8 - 0.0 - - 10 - - - -
24/09:30pm 29.6 WNW 9 12 1008.9 - 0.0 - - 10 - - - -
24/09:00pm 29.7 WNW 9 13 1008.9 S 0.0 Fine Mostly clear 30 - - - -
24/08:30pm 29.9 WNW 9 13 1008.9 - 0.0 - - 10 - - - -
24/08:00pm 29.9 WNW 10 14 1008.7 - 0.0 - - 10 - - - -
24/07:30pm 30.0 W 10 14 1008.4 - 0.0 - - 10 - - - -
24/07:00pm 30.1 WNW 10 15 1008.0 - 0.0 - - 10 - - - -
24/06:30pm 30.2 W 9 14 1007.6 - 0.0 - - 10 - - - -
24/06:00pm 30.7 WNW 9 14 1007.3 R 0.0 Fine Partly cloudy 30 - - - -
24/05:30pm 31.4 NW 11 16 1007.2 - 0.0 - - 10 - - - -
24/05:00pm 31.9 WNW 11 16 1006.8 - 0.0 - - 10 - - - -
24/04:30pm 32.1 WNW 12 17 1006.8 - 0.0 - - 10 - - - -
24/04:00pm 32.7 W 14 18 1006.6 - 0.0 - Mostly clear 10 - - - -
24/03:30pm 33.2 W 13 18 1006.5 - 0.0 - Mostly clear 10 - - - -
24/03:00pm 33.3 W 12 17 1006.5 F 0.0 Distant precip. Mostly clear 30 - - - -
24/02:30pm 33.9 W 11 15 1007.0 - 0.0 - - 10 - - - -
24/02:00pm 34.6 W 11 15 1007.3 - 0.0 - - 10 - - - -
24/01:30pm 34.7 WNW 10 14 1007.7 - 0.0 - - 10 - - - -
24/01:00pm 34.2 W 10 13 1008.1 - 0.0 - - 10 - - - -
24/12:30pm 34.6 WNW 8 11 1008.6 - 0.0 - - 10 - - - -
24/12:00pm 34.0 W 9 12 1009.0 F 0.0 Fine Mostly clear 30 - - - -
24/11:30am 33.5 W 9 13 1009.4 - 0.0 - Mostly clear 10 - - - -

Other Formats:

Comma delimited format used in spreadsheet applications
http://www.bom.gov.au/fwo/IDW60701/IDW60701.94203.axf

JavaScript Object Notation format (JSON) in row-major order
http://www.bom.gov.au/fwo/IDW60701/IDW60701.94203.json